createdAt,value
2022-12-20T00:00:29.615Z,100339.03
2022-12-20T00:03:34.487Z,100344.50
2022-12-20T00:06:39.977Z,100344.75
2022-12-20T00:09:45.062Z,100346.97
2022-12-20T00:12:49.962Z,100343.31
2022-12-20T00:16:07.083Z,100345.59
2022-12-20T00:19:14.390Z,100344.16
2022-12-20T00:22:19.292Z,100335.88
2022-12-20T00:25:24.465Z,100333.09
2022-12-20T00:28:29.445Z,100322.66
2022-12-20T00:31:37.172Z,100317.00
2022-12-20T00:34:42.154Z,100312.81
2022-12-20T00:37:47.016Z,100309.69
2022-12-20T00:41:01.665Z,100314.75
2022-12-20T00:44:07.293Z,100316.06
2022-12-20T00:47:15.035Z,100320.03
2022-12-20T00:50:20.446Z,100317.50
2022-12-20T00:53:26.713Z,100318.19
2022-12-20T00:56:33.144Z,100308.28
2022-12-20T00:59:38.258Z,100302.13
2022-12-20T01:02:45.942Z,100295.53
2022-12-20T01:05:55.858Z,100302.50
2022-12-20T01:09:01.060Z,100323.03
2022-12-20T01:12:05.962Z,100306.13
2022-12-20T01:15:12.247Z,100311.50
2022-12-20T01:18:19.722Z,100299.16
2022-12-20T01:21:27.246Z,100296.47
2022-12-20T01:24:32.325Z,100287.84
2022-12-20T01:27:37.170Z,100291.19
2022-12-20T01:30:43.551Z,100284.72
2022-12-20T01:33:52.757Z,100278.00
2022-12-20T01:36:57.622Z,100284.13
2022-12-20T01:40:02.532Z,100290.25
2022-12-20T01:43:07.408Z,100292.06
2022-12-20T01:46:12.333Z,100279.88
2022-12-20T01:49:24.018Z,100273.31
2022-12-20T01:52:35.356Z,100280.28
2022-12-20T01:55:40.525Z,100269.34
2022-12-20T01:58:46.602Z,100287.72
2022-12-20T02:01:51.843Z,100270.78
2022-12-20T02:04:59.429Z,100260.44
2022-12-20T02:08:04.367Z,100259.63
2022-12-20T02:11:18.835Z,100256.44
2022-12-20T02:14:39.230Z,100242.38
2022-12-20T02:17:52.555Z,100249.25
2022-12-20T02:21:19.788Z,100253.97
2022-12-20T02:24:54.215Z,100256.72
2022-12-20T02:28:06.921Z,100253.00
2022-12-20T02:31:19.053Z,100236.91
2022-12-20T02:34:27.381Z,100236.06
2022-12-20T02:37:35.133Z,100226.69
2022-12-20T02:40:44.595Z,100227.53
2022-12-20T02:44:20.320Z,100221.06
2022-12-20T02:47:32.804Z,100237.38
2022-12-20T02:50:41.172Z,100239.06
2022-12-20T02:53:46.351Z,100216.13
2022-12-20T02:56:57.651Z,100213.00
2022-12-20T03:00:08.516Z,100211.63
2022-12-20T03:03:25.463Z,100213.47
2022-12-20T03:06:30.923Z,100223.94
2022-12-20T03:09:38.043Z,100213.53
2022-12-20T03:12:42.970Z,100213.81
2022-12-20T03:15:48.007Z,100201.16
2022-12-20T03:18:55.456Z,100211.13
2022-12-20T03:22:00.818Z,100197.44
2022-12-20T03:25:05.904Z,100191.97
2022-12-20T03:28:10.809Z,100184.44
2022-12-20T03:31:15.742Z,100190.44
2022-12-20T03:34:23.312Z,100201.91
2022-12-20T03:37:28.267Z,100193.09
2022-12-20T03:40:33.216Z,100177.00
2022-12-20T03:43:38.060Z,100182.75
2022-12-20T03:46:43.029Z,100161.13
2022-12-20T03:49:52.069Z,100148.13
2022-12-20T03:52:56.988Z,100149.47
2022-12-20T03:56:01.918Z,100157.50
2022-12-20T03:59:06.809Z,100198.31
2022-12-20T04:02:11.905Z,100193.78
2022-12-20T04:05:19.771Z,100186.81
2022-12-20T04:08:24.716Z,100180.63
2022-12-20T04:11:29.825Z,100179.06
2022-12-20T04:14:35.985Z,100183.59
2022-12-20T04:17:40.956Z,100184.44
2022-12-20T04:20:48.771Z,100188.22
2022-12-20T04:23:56.050Z,100178.56
2022-12-20T04:27:00.963Z,100171.81
2022-12-20T04:30:05.821Z,100151.47
2022-12-20T04:33:10.794Z,100139.25
2022-12-20T04:36:18.958Z,100153.41
2022-12-20T04:39:23.938Z,100140.91
2022-12-20T04:42:28.968Z,100124.09
2022-12-20T04:45:34.015Z,100110.97
2022-12-20T04:48:58.239Z,100118.38
2022-12-20T04:52:19.119Z,100131.47
2022-12-20T04:55:24.011Z,100127.81
2022-12-20T04:58:29.281Z,100136.72
2022-12-20T05:01:34.506Z,100141.03
2022-12-20T05:04:40.361Z,100140.78
2022-12-20T05:07:48.059Z,100140.91
2022-12-20T05:10:52.979Z,100132.88
2022-12-20T05:13:57.944Z,100137.69
2022-12-20T05:17:02.857Z,100124.91
2022-12-20T05:20:10.325Z,100131.22
2022-12-20T05:23:30.437Z,100117.84
2022-12-20T05:26:37.563Z,100120.63
2022-12-20T05:29:42.352Z,100115.75
2022-12-20T05:32:47.747Z,100115.09
2022-12-20T05:35:52.940Z,100113.53
2022-12-20T05:39:04.391Z,100116.50
2022-12-20T05:42:09.798Z,100109.63
2022-12-20T05:45:15.262Z,100114.84
2022-12-20T05:48:22.196Z,100107.34
2022-12-20T05:51:27.264Z,100104.25
2022-12-20T05:54:34.789Z,100107.09
2022-12-20T05:57:39.700Z,100111.41
2022-12-20T06:00:45.188Z,100110.97
2022-12-20T06:03:51.383Z,100116.91
2022-12-20T06:06:56.484Z,100125.41
2022-12-20T06:10:04.211Z,100126.59
2022-12-20T06:13:09.487Z,100130.78
2022-12-20T06:16:19.841Z,100129.94
2022-12-20T06:19:24.933Z,100138.53
2022-12-20T06:22:30.729Z,100131.63
2022-12-20T06:25:39.801Z,100128.78
2022-12-20T06:28:46.168Z,100116.06
2022-12-20T06:31:51.054Z,100111.41
2022-12-20T06:34:55.859Z,100117.28
2022-12-20T06:38:00.743Z,100099.22
2022-12-20T06:41:08.645Z,100105.72
2022-12-20T06:44:13.529Z,100081.59
2022-12-20T06:47:18.918Z,100089.09
2022-12-20T06:50:23.862Z,100072.13
2022-12-20T06:53:28.743Z,100075.78
2022-12-20T06:56:41.008Z,100095.19
2022-12-20T06:59:46.415Z,100098.50
2022-12-20T07:02:51.741Z,100118.31
2022-12-20T07:05:57.420Z,100118.81
2022-12-20T07:09:02.437Z,100111.84
2022-12-20T07:12:10.555Z,100107.34
2022-12-20T07:15:15.478Z,100115.03
2022-12-20T07:18:20.395Z,100119.47
2022-12-20T07:21:26.130Z,100113.94
2022-12-20T07:24:31.012Z,100108.53
2022-12-20T07:27:38.696Z,100108.91
2022-12-20T07:30:43.750Z,100109.84
2022-12-20T07:33:48.651Z,100111.84
2022-12-20T07:36:53.559Z,100109.91
2022-12-20T07:39:58.650Z,100105.53
2022-12-20T07:43:06.129Z,100103.34
2022-12-20T07:46:11.987Z,100099.97
2022-12-20T07:49:17.239Z,100103.84
2022-12-20T07:52:25.704Z,100107.31
2022-12-20T07:55:31.507Z,100102.69
2022-12-20T07:58:42.725Z,100102.28
2022-12-20T08:01:48.838Z,100110.31
2022-12-20T08:04:54.006Z,100113.63
2022-12-20T08:08:00.541Z,100114.38
2022-12-20T08:11:06.562Z,100118.59
2022-12-20T08:14:15.536Z,100116.66
2022-12-20T08:17:20.396Z,100115.94
2022-12-20T08:20:25.398Z,100102.28
2022-12-20T08:23:30.315Z,100087.66
2022-12-20T08:26:35.264Z,100093.88
2022-12-20T08:29:42.737Z,100087.19
2022-12-20T08:32:47.571Z,100082.06
2022-12-20T08:36:00.531Z,100084.81
2022-12-20T08:39:05.974Z,100078.69
2022-12-20T08:42:11.480Z,100073.13
2022-12-20T08:45:19.505Z,100074.28
2022-12-20T08:48:25.688Z,100058.69
2022-12-20T08:51:30.614Z,100050.25
2022-12-20T08:54:35.580Z,100050.53
2022-12-20T08:57:40.404Z,100048.66
2022-12-20T09:00:47.880Z,100043.38
2022-12-20T09:03:52.823Z,100014.06
2022-12-20T09:06:57.706Z,100011.00
2022-12-20T09:10:02.631Z,100012.94
2022-12-20T09:13:07.464Z,100025.97
2022-12-20T09:16:17.506Z,100026.66
2022-12-20T09:19:22.431Z,100025.13
2022-12-20T09:22:27.191Z,100028.56
2022-12-20T09:25:32.027Z,100025.16
2022-12-20T09:28:37.548Z,100017.09
2022-12-20T09:31:45.228Z,100034.66
2022-12-20T09:34:50.437Z,100040.44
2022-12-20T09:37:55.243Z,100040.69
2022-12-20T09:41:03.682Z,100035.66
2022-12-20T09:44:15.412Z,100030.44
2022-12-20T09:47:25.770Z,100036.38
2022-12-20T09:50:46.699Z,100025.00
2022-12-20T09:54:03.806Z,100014.78
2022-12-20T09:57:15.987Z,100003.97
2022-12-20T10:00:22.801Z,100006.69
2022-12-20T10:03:34.429Z,100002.09
2022-12-20T10:06:47.967Z,100002.50
2022-12-20T10:10:09.690Z,100003.09
2022-12-20T10:13:27.387Z,99992.31
2022-12-20T10:16:45.493Z,99990.09
2022-12-20T10:20:18.912Z,99989.44
2022-12-20T10:23:33.593Z,99987.03
2022-12-20T10:26:38.803Z,99975.78
2022-12-20T10:29:44.147Z,99958.31
2022-12-20T10:32:51.475Z,99943.03
2022-12-20T10:35:59.053Z,99968.25
2022-12-20T10:39:05.864Z,99968.44
2022-12-20T10:42:28.198Z,99959.19
2022-12-20T10:45:38.853Z,99951.22
2022-12-20T10:48:45.740Z,99960.03
2022-12-20T10:51:59.039Z,99952.91
2022-12-20T10:55:03.979Z,99957.75
2022-12-20T10:58:16.587Z,99943.88
2022-12-20T11:01:23.832Z,99940.84
2022-12-20T11:04:31.427Z,99934.06
2022-12-20T11:07:43.601Z,99917.06
2022-12-20T11:11:16.521Z,99905.19
2022-12-20T11:14:23.275Z,99915.38
2022-12-20T11:17:40.093Z,99915.69
2022-12-20T11:20:50.754Z,99919.94
2022-12-20T11:24:05.477Z,99898.59
2022-12-20T11:27:22.627Z,99895.66
2022-12-20T11:30:29.938Z,99895.00
2022-12-20T11:33:46.121Z,99915.97
2022-12-20T11:37:06.749Z,99904.81
2022-12-20T11:40:27.281Z,99901.47
2022-12-20T11:44:23.343Z,99909.41
2022-12-20T11:47:34.909Z,99903.84
2022-12-20T11:50:57.513Z,99882.13
2022-12-20T11:54:07.426Z,99874.63
2022-12-20T11:57:21.013Z,99871.47
2022-12-20T12:00:27.605Z,99860.03
2022-12-20T12:03:37.777Z,99862.81
2022-12-20T12:06:46.994Z,99873.78
2022-12-20T12:09:59.048Z,99869.16
2022-12-20T12:13:16.253Z,99859.41
2022-12-20T12:16:27.327Z,99855.53
2022-12-20T12:19:34.604Z,99851.34
2022-12-20T12:22:42.754Z,99849.03
2022-12-20T12:25:47.734Z,99855.91
2022-12-20T12:28:57.959Z,99846.50
2022-12-20T12:32:09.997Z,99829.88
2022-12-20T12:35:33.613Z,99828.84
2022-12-20T12:39:06.050Z,99823.88
2022-12-20T12:42:42.698Z,99815.53
2022-12-20T12:45:52.815Z,99828.94
2022-12-20T12:49:02.524Z,99821.81
2022-12-20T12:52:08.563Z,99811.69
2022-12-20T12:55:38.669Z,99809.06
2022-12-20T12:58:48.804Z,99814.06
2022-12-20T13:01:58.267Z,99815.91
2022-12-20T13:05:05.229Z,99812.09
2022-12-20T13:08:19.078Z,99809.91
2022-12-20T13:11:34.035Z,99811.88
2022-12-20T13:14:55.079Z,99799.00
2022-12-20T13:18:03.656Z,99795.44
2022-12-20T13:21:39.124Z,99806.13
2022-12-20T13:24:59.597Z,99792.69
2022-12-20T13:28:34.203Z,99789.44
2022-12-20T13:31:39.169Z,99797.66
2022-12-20T13:34:59.857Z,99782.44
2022-12-20T13:38:07.529Z,99788.91
2022-12-20T13:41:32.616Z,99774.56
2022-12-20T13:44:45.242Z,99777.28
2022-12-20T13:47:56.030Z,99771.22
2022-12-20T13:51:04.285Z,99767.19
2022-12-20T13:54:21.693Z,99753.78
2022-12-20T13:57:33.810Z,99767.75
2022-12-20T14:00:38.671Z,99747.25
2022-12-20T14:03:45.127Z,99763.31
2022-12-20T14:06:59.591Z,99774.09
2022-12-20T14:10:07.812Z,99778.13
2022-12-20T14:13:24.401Z,99763.03
2022-12-20T14:16:31.684Z,99778.00
2022-12-20T14:19:36.542Z,99789.78
2022-12-20T14:22:48.886Z,99789.31
2022-12-20T14:25:56.997Z,99782.44
2022-12-20T14:29:07.845Z,99768.41
2022-12-20T14:32:22.993Z,99768.63
2022-12-20T14:35:28.655Z,99764.59
2022-12-20T14:38:36.309Z,99759.13
2022-12-20T14:41:42.912Z,99749.38
2022-12-20T14:44:47.859Z,99740.00
2022-12-20T14:47:58.143Z,99735.63
2022-12-20T14:51:02.965Z,99738.88
2022-12-20T14:54:39.489Z,99740.06
2022-12-20T14:57:47.451Z,99755.56
2022-12-20T15:01:00.104Z,99759.53
2022-12-20T15:04:05.408Z,99753.97
2022-12-20T15:07:32.261Z,99752.72
2022-12-20T15:10:42.327Z,99748.56
2022-12-20T15:13:50.401Z,99751.06
2022-12-20T15:16:55.708Z,99740.56
2022-12-20T15:20:02.113Z,99747.44
2022-12-20T15:23:07.149Z,99741.97
2022-12-20T15:26:18.092Z,99747.53
2022-12-20T15:29:25.827Z,99723.69
2022-12-20T15:32:32.267Z,99731.47
2022-12-20T15:35:37.341Z,99719.94
2022-12-20T15:42:10.729Z,99716.22
2022-12-20T15:45:16.622Z,99709.66
2022-12-20T15:48:23.223Z,99700.16
2022-12-20T15:51:31.424Z,99700.38
2022-12-20T15:54:38.560Z,99691.88
2022-12-20T15:57:46.220Z,99677.25
2022-12-20T16:00:51.138Z,99663.53
2022-12-20T16:03:56.177Z,99682.50
2022-12-20T16:07:01.034Z,99678.25
2022-12-20T16:10:06.874Z,99675.53
2022-12-20T16:13:21.097Z,99671.38
2022-12-20T16:16:28.177Z,99661.81
2022-12-20T16:19:33.155Z,99663.31
2022-12-20T16:22:37.934Z,99672.47
2022-12-20T16:25:42.792Z,99668.25
2022-12-20T16:28:52.575Z,99675.63
2022-12-20T16:31:57.514Z,99678.91
2022-12-20T16:35:02.352Z,99704.84
2022-12-20T16:38:07.794Z,99723.00
2022-12-20T16:41:16.263Z,99705.72
2022-12-20T16:44:23.768Z,99706.00
2022-12-20T16:47:28.729Z,99720.88
2022-12-20T16:50:33.721Z,99696.94
2022-12-20T16:54:09.885Z,99688.34
2022-12-20T16:57:03.339Z,99685.16
2022-12-20T17:00:14.153Z,99691.28
2022-12-20T17:03:19.179Z,99677.72
2022-12-20T17:06:24.345Z,99668.72
2022-12-20T17:12:48.855Z,99678.41
2022-12-20T17:15:56.807Z,99678.78
2022-12-20T17:19:02.269Z,99671.94
2022-12-20T17:25:28.979Z,99685.53
2022-12-20T17:28:33.786Z,99705.84
2022-12-20T17:31:43.001Z,99702.19
2022-12-20T17:34:47.999Z,99698.81
2022-12-20T17:37:55.942Z,99694.00
2022-12-20T17:41:00.732Z,99700.22
2022-12-20T17:44:07.279Z,99697.03
2022-12-20T17:47:14.755Z,99679.00
2022-12-20T17:50:19.930Z,99677.25
2022-12-20T17:53:24.706Z,99678.91
2022-12-20T17:56:31.276Z,99679.16
2022-12-20T17:59:36.127Z,99671.28
2022-12-20T18:02:43.765Z,99674.47
2022-12-20T18:05:49.451Z,99676.06
2022-12-20T18:08:55.718Z,99680.41
2022-12-20T18:12:00.591Z,99676.69
2022-12-20T18:15:07.511Z,99666.25
2022-12-20T18:18:14.841Z,99657.63
2022-12-20T18:21:21.447Z,99651.47
2022-12-20T18:24:26.231Z,99661.03
2022-12-20T18:27:31.159Z,99677.78
2022-12-20T18:30:36.789Z,99663.84
2022-12-20T18:33:44.379Z,99653.22
2022-12-20T18:36:49.611Z,99643.00
2022-12-20T18:39:54.604Z,99648.91
2022-12-20T18:43:05.634Z,99650.19
2022-12-20T18:46:14.619Z,99643.06
2022-12-20T18:49:22.181Z,99637.06
2022-12-20T18:52:27.430Z,99635.31
2022-12-20T18:55:32.402Z,99639.69
2022-12-20T18:58:37.292Z,99634.22
2022-12-20T19:01:43.844Z,99639.88
2022-12-20T19:04:51.410Z,99620.59
2022-12-20T19:07:56.299Z,99629.91
2022-12-20T19:11:02.624Z,99623.91
2022-12-20T19:14:07.765Z,99618.13
2022-12-20T19:17:12.979Z,99607.53
2022-12-20T19:20:23.117Z,99590.38
2022-12-20T19:23:27.933Z,99600.00
2022-12-20T19:26:32.784Z,99601.38
2022-12-20T19:29:37.534Z,99595.13
2022-12-20T19:32:42.550Z,99603.78
2022-12-20T19:35:57.318Z,99607.72
2022-12-20T19:39:04.044Z,99618.41
2022-12-20T19:42:23.578Z,99614.84
2022-12-20T19:45:29.577Z,99615.75
2022-12-20T19:48:35.933Z,99594.44
2022-12-20T19:51:43.905Z,99587.16
2022-12-20T19:54:48.733Z,99599.13
2022-12-20T19:57:53.593Z,99582.66
2022-12-20T20:00:58.472Z,99584.28
2022-12-20T20:04:05.405Z,99599.97
2022-12-20T20:07:12.871Z,99602.41
2022-12-20T20:10:17.830Z,99605.13
2022-12-20T20:13:22.912Z,99608.78
2022-12-20T20:16:27.802Z,99618.09
2022-12-20T20:19:32.738Z,99623.78
2022-12-20T20:22:40.280Z,99629.13
2022-12-20T20:25:48.037Z,99630.53
2022-12-20T20:28:53.478Z,99615.44
2022-12-20T20:31:58.419Z,99623.88
2022-12-20T20:35:03.203Z,99614.53
2022-12-20T20:38:13.943Z,99620.94
2022-12-20T20:41:19.028Z,99611.06
2022-12-20T20:44:24.111Z,99608.69
2022-12-20T20:47:29.008Z,99620.59
2022-12-20T20:50:33.794Z,99611.91
2022-12-20T20:53:41.721Z,99612.50
2022-12-20T20:56:46.540Z,99622.28
2022-12-20T20:59:51.442Z,99628.22
2022-12-20T21:02:56.555Z,99625.75
2022-12-20T21:09:28.973Z,99618.47
2022-12-20T21:12:33.804Z,99621.31
2022-12-20T21:15:39.326Z,99614.38
2022-12-20T21:18:44.732Z,99608.78
2022-12-20T21:21:49.534Z,99615.44
2022-12-20T21:24:57.419Z,99621.66
2022-12-20T21:28:02.313Z,99629.81
2022-12-20T21:31:09.250Z,99621.06
2022-12-20T21:34:14.097Z,99627.91
2022-12-20T21:37:18.920Z,99636.88
2022-12-20T21:40:26.375Z,99627.47
2022-12-20T21:43:31.493Z,99616.16
2022-12-20T21:46:37.075Z,99617.84
2022-12-20T21:49:41.921Z,99612.44
2022-12-20T21:52:46.769Z,99618.66
2022-12-20T21:55:56.762Z,99615.63
2022-12-20T21:59:02.621Z,99617.38
2022-12-20T22:02:07.657Z,99612.06
2022-12-20T22:05:12.573Z,99602.59
2022-12-20T22:08:17.655Z,99599.56
2022-12-20T22:11:25.326Z,99607.41
2022-12-20T22:14:30.161Z,99609.13
2022-12-20T22:17:34.975Z,99617.59
2022-12-20T22:20:39.704Z,99608.41
2022-12-20T22:23:45.573Z,99612.00
2022-12-20T22:26:53.127Z,99603.03
2022-12-20T22:29:58.069Z,99603.09
2022-12-20T22:33:02.931Z,99598.84
2022-12-20T22:36:09.384Z,99597.84
2022-12-20T22:39:14.492Z,99602.16
2022-12-20T22:42:22.016Z,99589.19
2022-12-20T22:45:26.843Z,99586.31
2022-12-20T22:48:31.905Z,99590.25
2022-12-20T22:51:36.673Z,99589.94
2022-12-20T22:54:41.430Z,99578.69
2022-12-20T22:57:48.787Z,99572.13
2022-12-20T23:00:53.588Z,99576.09
2022-12-20T23:03:58.518Z,99572.06
2022-12-20T23:07:03.329Z,99575.94
2022-12-20T23:10:29.340Z,99563.38
2022-12-20T23:13:52.181Z,99555.50
2022-12-20T23:16:57.130Z,99566.81
2022-12-20T23:20:14.434Z,99567.19
2022-12-20T23:23:19.409Z,99561.88
2022-12-20T23:26:24.807Z,99554.31
2022-12-20T23:29:32.851Z,99555.63
2022-12-20T23:32:37.942Z,99550.63
2022-12-20T23:35:42.785Z,99552.50
2022-12-20T23:38:47.558Z,99556.66
2022-12-20T23:41:52.329Z,99542.66
2022-12-20T23:44:59.948Z,99540.47
2022-12-20T23:48:04.693Z,99534.84
2022-12-20T23:51:10.240Z,99541.97
2022-12-20T23:54:15.239Z,99545.00
2022-12-20T23:57:20.089Z,99543.97
